Time;durP1;ratioP1;P1;durP2;ratioP2;P2;SDS_P1;SDS_P2;PMS_P1;PMS_P2;Temp;Humidity;BMP_temperature;BMP_pressure;BME280_temperature;BME280_humidity;BME280_pressure;Samples;Min_cycle;Max_cycle;Signal;HPM_P1;HPM_P2
2022/03/11 00:02:04;;;;;;;0.60;0.60;;;9.60;99.90;;;;;;5052386;28;20451;-73
2022/03/11 00:04:30;;;;;;;1.10;0.75;;;9.60;99.90;;;;;;5047897;28;20029;-73
2022/03/11 00:06:56;;;;;;;0.22;0.20;;;9.60;99.90;;;;;;5048274;28;20029;-73
2022/03/11 00:09:22;;;;;;;0.17;0.17;;;9.70;99.90;;;;;;5032502;28;20029;-73
2022/03/11 00:11:48;;;;;;;0.35;0.35;;;9.70;99.90;;;;;;5031715;28;20030;-73
2022/03/11 00:14:14;;;;;;;0.00;0.00;;;9.80;99.90;;;;;;5032603;28;20029;-73
2022/03/11 00:16:39;;;;;;;0.90;0.90;;;9.80;99.90;;;;;;5032371;28;20083;-73
2022/03/11 00:19:05;;;;;;;1.25;0.68;;;9.80;99.90;;;;;;5032510;28;20033;-73
2022/03/11 00:21:30;;;;;;;6.57;1.42;;;9.90;99.90;;;;;;5032786;28;20026;-73
2022/03/11 00:23:56;;;;;;;0.25;0.25;;;9.90;99.90;;;;;;5032214;28;20029;-74
2022/03/11 00:26:22;;;;;;;0.47;0.47;;;9.90;99.90;;;;;;5032340;28;20022;-73
2022/03/11 00:28:47;;;;;;;0.13;0.13;;;9.90;99.90;;;;;;5031954;28;20032;-75
2022/03/11 00:31:13;;;;;;;0.10;0.10;;;9.90;99.90;;;;;;5032575;28;20026;-73
2022/03/11 00:33:39;;;;;;;0.70;0.70;;;10.00;99.90;;;;;;5032253;28;20037;-73
2022/03/11 00:36:05;;;;;;;0.17;0.17;;;10.00;99.90;;;;;;5032419;28;20025;-73
2022/03/11 00:38:30;;;;;;;0.60;0.57;;;10.10;99.90;;;;;;5050956;28;20039;-73
2022/03/11 00:40:56;;;;;;;0.30;0.30;;;10.10;99.90;;;;;;5051852;28;20104;-72
2022/03/11 00:43:23;;;;;;;0.25;0.25;;;10.20;99.90;;;;;;5052085;28;20078;-74
2022/03/11 00:45:49;;;;;;;0.13;0.13;;;10.20;99.90;;;;;;5050316;28;20021;-74
2022/03/11 00:48:15;;;;;;;0.10;0.10;;;10.20;99.90;;;;;;5051539;28;20395;-74
2022/03/11 00:50:40;;;;;;;0.63;0.63;;;10.30;99.90;;;;;;5054833;28;20021;-74
2022/03/11 00:53:06;;;;;;;4.63;0.35;;;10.30;99.90;;;;;;5055572;28;20025;-73
2022/03/11 00:55:32;;;;;;;0.10;0.10;;;10.30;99.90;;;;;;5055572;28;20099;-74
2022/03/11 00:57:57;;;;;;;0.10;0.10;;;10.50;99.90;;;;;;5055556;28;20053;-73
2022/03/11 01:00:24;;;;;;;5.07;0.35;;;10.40;99.90;;;;;;5054109;28;20457;-73
2022/03/11 01:02:49;;;;;;;0.10;0.10;;;10.40;99.90;;;;;;5055618;28;20017;-77
2022/03/11 01:05:15;;;;;;;0.47;0.40;;;10.40;99.90;;;;;;5043754;28;20029;-73
2022/03/11 01:07:41;;;;;;;0.77;0.52;;;10.40;99.90;;;;;;5035154;28;20029;-74
2022/03/11 01:10:08;;;;;;;0.93;0.57;;;10.40;99.90;;;;;;5034444;28;20028;-74
2022/03/11 01:12:34;;;;;;;0.05;0.05;;;10.40;99.90;;;;;;5034658;28;20100;-74
2022/03/11 01:14:59;;;;;;;2.08;0.85;;;10.40;99.90;;;;;;5035475;28;20049;-74
2022/03/11 01:17:25;;;;;;;0.15;0.10;;;10.40;99.90;;;;;;5035251;28;20064;-74
2022/03/11 01:19:51;;;;;;;4.03;0.38;;;10.40;99.90;;;;;;5034125;28;20056;-74
2022/03/11 01:22:17;;;;;;;1.17;0.77;;;10.40;99.90;;;;;;5033265;28;20029;-73
2022/03/11 01:24:43;;;;;;;1.15;1.05;;;10.40;99.90;;;;;;5034936;28;20033;-74
2022/03/11 01:27:08;;;;;;;1.20;1.10;;;10.30;99.90;;;;;;5034909;28;20032;-74
2022/03/11 01:29:34;;;;;;;0.22;0.22;;;10.30;99.90;;;;;;5035350;28;20026;-73
2022/03/11 01:32:00;;;;;;;1.08;0.63;;;10.30;99.90;;;;;;5035016;28;20500;-73
2022/03/11 01:34:25;;;;;;;0.00;0.00;;;10.30;99.90;;;;;;5033921;28;20128;-74
2022/03/11 01:36:51;;;;;;;3.83;1.88;;;10.40;99.90;;;;;;5039732;28;20033;-74
2022/03/11 01:39:17;;;;;;;0.73;0.73;;;10.50;99.90;;;;;;5053404;28;20047;-73
2022/03/11 01:41:42;;;;;;;1.13;0.82;;;10.60;99.90;;;;;;5053286;28;20052;-74
2022/03/11 01:44:09;;;;;;;1.00;1.00;;;10.50;99.90;;;;;;5054963;28;20077;-74
2022/03/11 01:46:36;;;;;;;0.77;0.55;;;10.70;99.90;;;;;;5054227;28;20024;-74
2022/03/11 01:49:05;;;;;;;0.55;0.55;;;10.70;99.90;;;;;;5054715;28;20048;-74
2022/03/11 01:51:33;;;;;;;0.13;0.13;;;10.60;99.90;;;;;;5054444;28;20020;-75
2022/03/11 01:53:59;;;;;;;0.20;0.20;;;10.70;99.90;;;;;;5053136;28;20492;-73
2022/03/11 01:56:26;;;;;;;1.10;1.10;;;10.70;99.90;;;;;;5053045;28;20044;-73
2022/03/11 01:58:57;;;;;;;0.00;0.00;;;10.70;99.90;;;;;;5054024;28;20036;-73
2022/03/11 02:01:23;;;;;;;0.40;0.40;;;10.80;99.90;;;;;;5054418;28;20025;-74
2022/03/11 02:03:49;;;;;;;0.50;0.50;;;10.80;99.90;;;;;;5054479;28;20021;-73
2022/03/11 02:06:16;;;;;;;1.27;0.43;;;10.90;99.90;;;;;;5049606;28;20033;-74
2022/03/11 02:08:42;;;;;;;1.10;1.00;;;10.90;99.90;;;;;;5034205;28;20081;-74
2022/03/11 02:11:11;;;;;;;0.38;0.38;;;10.90;99.90;;;;;;5034579;28;20026;-74
2022/03/11 02:13:57;;;;;;;0.43;0.43;;;10.90;99.90;;;;;;5034069;28;20071;-74
2022/03/11 02:16:28;;;;;;;0.35;0.35;;;10.90;99.90;;;;;;5034442;28;20057;-74
2022/03/11 02:18:54;;;;;;;1.15;0.57;;;10.90;99.90;;;;;;5034157;28;20017;-73
2022/03/11 02:21:22;;;;;;;0.40;0.40;;;10.90;99.90;;;;;;5034704;28;20113;-74
2022/03/11 02:23:54;;;;;;;0.65;0.65;;;10.90;99.90;;;;;;5032312;28;20104;-74
2022/03/11 02:26:22;;;;;;;0.80;0.80;;;10.90;99.90;;;;;;5033953;28;20025;-73
2022/03/11 02:28:50;;;;;;;4.68;1.00;;;10.90;99.90;;;;;;5034132;28;20045;-73
2022/03/11 02:31:18;;;;;;;0.52;0.52;;;10.90;99.90;;;;;;5034136;28;20369;-73
2022/03/11 02:33:43;;;;;;;0.17;0.17;;;10.90;99.90;;;;;;5033260;28;20116;-73
2022/03/11 02:36:10;;;;;;;0.20;0.20;;;10.90;99.90;;;;;;5049374;28;20108;-74
2022/03/11 02:38:36;;;;;;;1.27;0.98;;;10.90;99.90;;;;;;5052023;28;20021;-74
2022/03/11 02:41:02;;;;;;;3.83;1.10;;;10.80;99.90;;;;;;5053589;28;20047;-74
2022/03/11 02:43:28;;;;;;;0.30;0.30;;;10.80;99.90;;;;;;5053677;28;20107;-72
2022/03/11 02:45:54;;;;;;;0.75;0.75;;;10.90;99.90;;;;;;5053096;28;20373;-76
2022/03/11 02:48:19;;;;;;;0.38;0.38;;;10.90;99.90;;;;;;5053533;28;20021;-73
2022/03/11 02:50:45;;;;;;;0.10;0.10;;;10.90;99.90;;;;;;5053288;28;20388;-73
2022/03/11 02:53:11;;;;;;;0.25;0.25;;;10.80;99.90;;;;;;5053205;28;20104;-74
2022/03/11 02:55:37;;;;;;;5.72;1.10;;;10.80;99.90;;;;;;5053278;28;20123;-73
2022/03/11 02:58:03;;;;;;;0.20;0.13;;;10.80;99.90;;;;;;5052187;28;20029;-74
2022/03/11 03:00:28;;;;;;;0.32;0.32;;;10.80;99.90;;;;;;5053355;28;20044;-74
2022/03/11 03:02:54;;;;;;;0.40;0.40;;;10.90;99.90;;;;;;5051772;28;20031;-73
2022/03/11 03:05:20;;;;;;;0.57;0.57;;;10.80;99.90;;;;;;5040880;28;20025;-74
2022/03/11 03:07:46;;;;;;;0.30;0.30;;;10.80;99.90;;;;;;5032651;28;20020;-74
2022/03/11 03:10:11;;;;;;;1.10;1.00;;;10.80;99.90;;;;;;5031623;28;20022;-74
2022/03/11 03:12:38;;;;;;;0.15;0.15;;;10.80;99.90;;;;;;5031492;28;20096;-75
2022/03/11 03:15:04;;;;;;;2.00;1.20;;;10.80;99.90;;;;;;5033269;28;20025;-75
2022/03/11 03:17:30;;;;;;;0.38;0.38;;;10.80;99.90;;;;;;5033076;28;20044;-74
2022/03/11 03:19:56;;;;;;;1.65;0.52;;;10.80;99.90;;;;;;5032922;28;20037;-75
2022/03/11 03:22:21;;;;;;;0.10;0.10;;;10.80;99.90;;;;;;5033395;28;20025;-74
2022/03/11 03:24:47;;;;;;;0.20;0.20;;;10.80;99.90;;;;;;5032518;28;20382;-73
2022/03/11 03:27:13;;;;;;;0.00;0.00;;;10.80;99.90;;;;;;5032939;28;20435;-74
2022/03/11 03:29:39;;;;;;;1.45;1.13;;;10.80;99.90;;;;;;5033075;28;20416;-74
2022/03/11 03:32:05;;;;;;;0.10;0.10;;;10.80;99.90;;;;;;5032907;28;20041;-74
2022/03/11 03:34:33;;;;;;;0.15;0.15;;;10.80;99.90;;;;;;5033340;28;20484;-74
2022/03/11 03:37:00;;;;;;;0.28;0.20;;;10.80;99.90;;;;;;5038579;28;20542;-73
2022/03/11 03:39:27;;;;;;;0.25;0.25;;;10.70;99.90;;;;;;5053185;28;20522;-74
2022/03/11 03:41:53;;;;;;;0.03;0.03;;;10.80;99.90;;;;;;5051872;28;20049;-75
2022/03/11 03:44:20;;;;;;;1.75;0.17;;;10.70;99.90;;;;;;5052854;28;20476;-75
2022/03/11 03:46:45;;;;;;;1.30;0.63;;;10.70;99.90;;;;;;5052020;28;20013;-75
2022/03/11 03:49:11;;;;;;;0.00;0.00;;;10.80;99.90;;;;;;5052767;28;20109;-75
2022/03/11 03:51:40;;;;;;;0.13;0.13;;;10.80;99.90;;;;;;5050721;28;20124;-74
2022/03/11 03:54:07;;;;;;;6.40;0.65;;;10.80;99.90;;;;;;5052565;28;20025;-73
2022/03/11 03:56:35;;;;;;;3.05;1.20;;;10.80;99.90;;;;;;5052700;28;20399;-75
2022/03/11 03:59:04;;;;;;;0.10;0.10;;;10.70;99.90;;;;;;5052363;28;20507;-74
2022/03/11 04:01:34;;;;;;;0.50;0.50;;;10.80;99.90;;;;;;5052575;28;20025;-74
2022/03/11 04:04:01;;;;;;;0.52;0.52;;;10.70;99.90;;;;;;5051202;28;20096;-75
2022/03/11 04:06:28;;;;;;;0.40;0.40;;;10.80;99.90;;;;;;5032633;28;20025;-74
2022/03/11 04:08:56;;;;;;;0.30;0.30;;;10.70;99.90;;;;;;5032392;28;20021;-74
2022/03/11 04:11:25;;;;;;;0.17;0.17;;;10.70;99.90;;;;;;5031128;28;20079;-75
2022/03/11 04:13:51;;;;;;;0.55;0.52;;;10.70;99.90;;;;;;5032006;28;20448;-73
2022/03/11 04:16:18;;;;;;;0.55;0.47;;;10.70;99.90;;;;;;5032400;28;20040;-73
2022/03/11 04:18:44;;;;;;;1.10;0.55;;;10.70;99.90;;;;;;5031683;28;20029;-74
2022/03/11 04:21:10;;;;;;;1.30;0.52;;;10.70;99.90;;;;;;5032558;28;20029;-74
2022/03/11 04:23:35;;;;;;;0.30;0.30;;;10.70;99.90;;;;;;5032314;28;20104;-74
2022/03/11 04:26:02;;;;;;;3.35;2.78;;;10.70;99.90;;;;;;5035928;28;20036;-74
2022/03/11 04:28:27;;;;;;;0.00;0.00;;;10.70;99.90;;;;;;5036372;28;20014;-73
2022/03/11 04:30:53;;;;;;;0.20;0.20;;;10.70;99.90;;;;;;5036248;28;20021;-74
2022/03/11 04:33:19;;;;;;;0.35;0.13;;;10.70;99.90;;;;;;5036587;28;20051;-74
2022/03/11 04:35:45;;;;;;;2.95;0.45;;;10.60;99.90;;;;;;5036099;28;20496;-73
2022/03/11 04:38:10;;;;;;;0.22;0.22;;;10.70;99.90;;;;;;5051856;28;20033;-74
2022/03/11 04:40:36;;;;;;;0.00;0.00;;;10.80;99.90;;;;;;5055874;28;20100;-73
2022/03/11 04:43:02;;;;;;;0.38;0.38;;;10.70;99.90;;;;;;5055923;28;20045;-73
2022/03/11 04:45:28;;;;;;;0.00;0.00;;;10.70;99.90;;;;;;5056068;28;20029;-74
2022/03/11 04:47:54;;;;;;;5.28;0.68;;;10.70;99.90;;;;;;5053959;28;20048;-73
2022/03/11 04:50:20;;;;;;;0.10;0.10;;;10.70;99.90;;;;;;5055347;28;20071;-73
2022/03/11 04:52:46;;;;;;;0.10;0.10;;;10.60;99.90;;;;;;5055353;28;20025;-73
2022/03/11 04:55:15;;;;;;;0.40;0.40;;;10.60;99.90;;;;;;5055454;28;20065;-73
2022/03/11 04:57:44;;;;;;;0.15;0.15;;;10.60;99.90;;;;;;5056207;28;20021;-75
2022/03/11 05:00:11;;;;;;;0.32;0.30;;;10.60;99.90;;;;;;5055596;28;20396;-75
2022/03/11 05:02:38;;;;;;;0.10;0.10;;;10.60;99.90;;;;;;5055411;28;20025;-73
2022/03/11 05:05:08;;;;;;;5.25;2.55;;;10.60;99.90;;;;;;5045289;28;20420;-73
2022/03/11 05:07:34;;;;;;;0.00;0.00;;;10.60;99.90;;;;;;5034410;28;20025;-74
2022/03/11 05:10:00;;;;;;;8.20;1.42;;;10.50;99.90;;;;;;5035502;28;20044;-75
2022/03/11 05:12:26;;;;;;;0.10;0.10;;;10.60;99.90;;;;;;5035251;28;20497;-73
2022/03/11 05:14:52;;;;;;;0.13;0.10;;;10.60;99.90;;;;;;5035527;28;20029;-74
2022/03/11 05:17:18;;;;;;;2.30;1.08;;;10.60;99.90;;;;;;5033695;28;20044;-74
2022/03/11 05:19:44;;;;;;;1.42;0.47;;;10.60;99.90;;;;;;5035267;28;20104;-74
2022/03/11 05:22:11;;;;;;;0.52;0.50;;;10.60;99.90;;;;;;5035342;28;20025;-75
2022/03/11 05:24:37;;;;;;;3.25;1.00;;;10.60;99.90;;;;;;5034997;28;20025;-74
2022/03/11 05:27:04;;;;;;;3.72;0.47;;;10.70;99.90;;;;;;5034381;28;20109;-74
2022/03/11 05:29:31;;;;;;;0.20;0.17;;;10.70;99.90;;;;;;5035232;28;20029;-73
2022/03/11 05:31:57;;;;;;;0.73;0.43;;;10.70;99.90;;;;;;5035140;28;20037;-75
2022/03/11 05:34:23;;;;;;;0.10;0.10;;;10.70;99.90;;;;;;5035529;28;20041;-74
2022/03/11 05:36:49;;;;;;;1.17;0.20;;;10.70;99.90;;;;;;5039118;28;20027;-74
2022/03/11 05:39:15;;;;;;;0.52;0.28;;;10.70;99.90;;;;;;5054777;28;20116;-73
2022/03/11 05:41:41;;;;;;;0.20;0.20;;;10.80;99.90;;;;;;5054528;28;20080;-75
2022/03/11 05:44:07;;;;;;;9.05;2.42;;;10.80;99.90;;;;;;5054826;28;20029;-72
2022/03/11 05:46:33;;;;;;;0.10;0.10;;;10.80;99.90;;;;;;5054937;28;20033;-73
2022/03/11 05:48:58;;;;;;;0.63;0.63;;;10.80;99.90;;;;;;5054068;28;20025;-74
2022/03/11 05:51:24;;;;;;;3.28;1.23;;;10.90;99.90;;;;;;5054554;28;20544;-73
2022/03/11 05:53:50;;;;;;;0.10;0.10;;;10.90;99.90;;;;;;5053864;28;20419;-74
2022/03/11 05:56:15;;;;;;;0.05;0.05;;;10.90;99.90;;;;;;5054507;28;20025;-72
2022/03/11 05:58:41;;;;;;;0.10;0.10;;;10.90;99.90;;;;;;5054837;28;20033;-75
2022/03/11 06:01:07;;;;;;;0.45;0.30;;;10.90;99.90;;;;;;5054578;28;20029;-74
2022/03/11 06:03:33;;;;;;;0.05;0.03;;;10.90;99.90;;;;;;5053672;28;20119;-72
2022/03/11 06:05:58;;;;;;;0.20;0.20;;;11.00;99.90;;;;;;5036835;28;20111;-73
2022/03/11 06:08:24;;;;;;;0.00;0.00;;;11.10;99.90;;;;;;5034409;28;20040;-73
2022/03/11 06:10:50;;;;;;;0.82;0.40;;;11.10;99.90;;;;;;5034431;28;20018;-75
2022/03/11 06:13:16;;;;;;;2.38;0.60;;;11.20;99.90;;;;;;5034212;28;20091;-74
2022/03/11 06:15:42;;;;;;;1.25;1.15;;;11.30;99.90;;;;;;5034618;28;20258;-74
2022/03/11 06:18:09;;;;;;;1.65;0.65;;;11.30;99.90;;;;;;5033827;28;20120;-75
2022/03/11 06:20:38;;;;;;;0.10;0.10;;;11.20;99.90;;;;;;5034413;28;20022;-74
2022/03/11 06:23:04;;;;;;;0.28;0.22;;;11.20;99.90;;;;;;5032865;28;20025;-74
2022/03/11 06:25:29;;;;;;;0.50;0.50;;;11.20;99.90;;;;;;5032638;28;20021;-74
2022/03/11 06:27:55;;;;;;;0.20;0.20;;;11.30;99.90;;;;;;5033694;28;20083;-75
2022/03/11 06:30:21;;;;;;;0.10;0.10;;;11.40;99.90;;;;;;5034125;28;20045;-75
2022/03/11 06:32:48;;;;;;;0.00;0.00;;;11.40;99.90;;;;;;5033789;28;20542;-75
2022/03/11 06:35:15;;;;;;;0.00;0.00;;;11.30;99.90;;;;;;5035526;28;20108;-73
2022/03/11 06:37:46;;;;;;;0.20;0.20;;;11.40;99.90;;;;;;5051031;28;20025;-73
2022/03/11 06:40:13;;;;;;;0.00;0.00;;;11.50;99.90;;;;;;5053656;28;20488;-73
2022/03/11 06:42:41;;;;;;;0.32;0.28;;;11.60;99.90;;;;;;5053445;28;20098;-73
2022/03/11 06:45:08;;;;;;;0.47;0.47;;;11.60;99.90;;;;;;5052195;28;20028;-73
2022/03/11 06:47:34;;;;;;;0.28;0.28;;;11.50;99.90;;;;;;5052496;28;20017;-74
2022/03/11 06:50:00;;;;;;;0.63;0.10;;;11.50;99.90;;;;;;5052378;28;20017;-72
2022/03/11 06:52:25;;;;;;;0.20;0.20;;;11.50;99.90;;;;;;5053231;28;20396;-70
2022/03/11 06:54:52;;;;;;;0.08;0.08;;;11.60;99.90;;;;;;5050644;28;20017;-71
2022/03/11 06:57:17;;;;;;;0.43;0.43;;;11.70;99.90;;;;;;5052336;28;20595;-75
2022/03/11 06:59:44;;;;;;;0.05;0.05;;;11.80;99.90;;;;;;5051455;28;20072;-73
2022/03/11 07:02:09;;;;;;;0.13;0.13;;;11.60;99.90;;;;;;5052867;28;20036;-72
2022/03/11 07:04:35;;;;;;;0.70;0.70;;;11.50;99.90;;;;;;5052660;28;20017;-74
2022/03/11 07:07:01;;;;;;;0.43;0.28;;;11.30;99.90;;;;;;5052778;28;20119;-72
2022/03/11 07:09:26;;;;;;;0.10;0.10;;;11.30;99.90;;;;;;5053227;28;20021;-72
2022/03/11 07:11:57;;;;;;;0.00;0.00;;;11.30;99.90;;;;;;5052118;28;20033;-75
2022/03/11 07:14:23;;;;;;;0.00;0.00;;;11.40;99.90;;;;;;5050517;28;20037;-74
2022/03/11 07:16:52;;;;;;;0.00;0.00;;;11.30;99.90;;;;;;5051350;28;20029;-72
2022/03/11 07:19:19;;;;;;;0.10;0.10;;;11.30;99.90;;;;;;5051408;28;20043;-74
2022/03/11 07:21:44;;;;;;;0.10;0.10;;;11.20;99.90;;;;;;5052730;28;20377;-74
2022/03/11 07:24:10;;;;;;;0.10;0.10;;;11.20;99.90;;;;;;5050895;28;20032;-74
2022/03/11 07:26:36;;;;;;;0.20;0.20;;;11.30;99.90;;;;;;5050430;28;20389;-74
2022/03/11 07:29:02;;;;;;;0.30;0.22;;;11.20;99.90;;;;;;5051858;28;20049;-74
2022/03/11 07:31:28;;;;;;;0.15;0.15;;;11.20;99.90;;;;;;5052384;28;20028;-74
2022/03/11 07:33:55;;;;;;;0.22;0.20;;;11.20;99.90;;;;;;5052634;28;20033;-73
2022/03/11 07:36:21;;;;;;;0.20;0.20;;;11.10;99.90;;;;;;5051931;28;20120;-71
2022/03/11 07:38:48;;;;;;;0.55;0.40;;;11.30;99.90;;;;;;5050883;28;20079;-71
2022/03/11 07:41:14;;;;;;;0.00;0.00;;;11.20;99.90;;;;;;5052076;28;20017;-73
2022/03/11 07:43:42;;;;;;;0.30;0.30;;;11.10;99.90;;;;;;5051878;28;20100;-71
2022/03/11 07:46:08;;;;;;;0.03;0.03;;;11.00;99.90;;;;;;5052179;28;20481;-71
2022/03/11 07:48:34;;;;;;;0.80;0.75;;;10.90;99.90;;;;;;5052136;28;20036;-72
2022/03/11 07:51:02;;;;;;;0.95;0.95;;;10.90;99.90;;;;;;5050029;28;20025;-74
2022/03/11 07:53:28;;;;;;;0.15;0.10;;;10.90;99.90;;;;;;5052160;28;20029;-71
2022/03/11 07:55:53;;;;;;;0.00;0.00;;;10.90;99.90;;;;;;5050058;28;20071;-72
2022/03/11 07:58:21;;;;;;;0.00;0.00;;;10.80;99.90;;;;;;5042757;28;20502;-71
2022/03/11 08:00:48;;;;;;;0.22;0.22;;;10.80;99.90;;;;;;5052480;28;20391;-72
2022/03/11 08:03:15;;;;;;;0.10;0.10;;;10.80;99.90;;;;;;5051553;28;20066;-69
2022/03/11 08:05:41;;;;;;;0.50;0.45;;;10.80;99.90;;;;;;5048768;28;20036;-73
2022/03/11 08:08:07;;;;;;;0.20;0.20;;;10.90;99.90;;;;;;5052779;28;20021;-72
2022/03/11 08:10:33;;;;;;;5.47;0.25;;;10.90;99.90;;;;;;5053019;28;20500;-71
2022/03/11 08:13:00;;;;;;;0.43;0.15;;;10.80;99.90;;;;;;5055104;28;20044;-71
2022/03/11 08:15:26;;;;;;;0.80;0.20;;;10.80;99.90;;;;;;5055460;28;20025;-71
2022/03/11 08:17:52;;;;;;;0.20;0.20;;;10.70;99.90;;;;;;5054822;28;20496;-73
2022/03/11 08:20:18;;;;;;;1.55;0.63;;;10.70;99.90;;;;;;5055631;28;20083;-72
2022/03/11 08:22:50;;;;;;;3.55;1.98;;;10.60;99.90;;;;;;5054942;28;20021;-75
2022/03/11 08:25:16;;;;;;;0.15;0.15;;;10.50;99.90;;;;;;5054930;28;20033;-74
2022/03/11 08:27:42;;;;;;;0.55;0.55;;;10.50;99.90;;;;;;5054730;28;20025;-72
2022/03/11 08:30:10;;;;;;;0.10;0.10;;;10.50;99.90;;;;;;5055201;28;20082;-72
2022/03/11 08:32:37;;;;;;;0.85;0.55;;;10.50;99.90;;;;;;5054858;28;20430;-71
2022/03/11 08:35:03;;;;;;;1.55;0.82;;;10.50;99.90;;;;;;5054239;28;20052;-72
2022/03/11 08:37:29;;;;;;;0.15;0.15;;;10.50;99.90;;;;;;5054953;28;20071;-72
2022/03/11 08:39:55;;;;;;;0.00;0.00;;;10.50;99.90;;;;;;5054276;28;20033;-72
2022/03/11 08:42:20;;;;;;;0.13;0.13;;;10.50;99.90;;;;;;5053770;28;20053;-73
2022/03/11 08:44:46;;;;;;;0.98;0.90;;;10.60;99.90;;;;;;5055130;28;20071;-72
2022/03/11 08:47:13;;;;;;;2.38;0.47;;;10.50;99.90;;;;;;5053458;28;20032;-72
2022/03/11 08:49:39;;;;;;;0.00;0.00;;;10.60;99.90;;;;;;5054290;28;20049;-72
2022/03/11 08:52:05;;;;;;;0.10;0.10;;;10.60;99.90;;;;;;5054124;28;20122;-72
2022/03/11 08:54:31;;;;;;;0.03;0.03;;;10.70;99.90;;;;;;5054692;28;20388;-73
2022/03/11 08:56:59;;;;;;;0.00;0.00;;;10.70;99.90;;;;;;5053346;28;20040;-74
2022/03/11 08:59:25;;;;;;;0.00;0.00;;;10.70;99.90;;;;;;5053562;28;20070;-72
2022/03/11 09:01:51;;;;;;;0.85;0.55;;;10.80;99.90;;;;;;5053431;28;20029;-74
2022/03/11 09:04:19;;;;;;;0.20;0.20;;;10.80;99.90;;;;;;5053598;28;20028;-73
2022/03/11 09:06:45;;;;;;;0.00;0.00;;;10.80;99.90;;;;;;5037343;28;20036;-75
2022/03/11 09:09:11;;;;;;;0.00;0.00;;;10.80;99.90;;;;;;5033639;28;20025;-75
2022/03/11 09:11:37;;;;;;;0.10;0.03;;;10.80;99.90;;;;;;5046657;28;20100;-75
2022/03/11 09:14:02;;;;;;;0.63;0.28;;;10.80;99.90;;;;;;5052007;28;20033;-73
2022/03/11 09:16:28;;;;;;;0.00;0.00;;;10.80;99.90;;;;;;5052310;28;20029;-72
2022/03/11 09:18:54;;;;;;;2.50;0.70;;;10.80;99.90;;;;;;5054232;28;20082;-75
2022/03/11 09:21:21;;;;;;;0.00;0.00;;;10.80;99.90;;;;;;5054348;28;20029;-76
2022/03/11 09:23:47;;;;;;;0.00;0.00;;;10.80;99.90;;;;;;5053530;28;20017;-73
2022/03/11 09:26:14;;;;;;;0.00;0.00;;;10.80;99.90;;;;;;5053168;28;20033;-74
2022/03/11 09:28:40;;;;;;;0.00;0.00;;;10.90;99.90;;;;;;5053563;28;20104;-76
2022/03/11 09:31:08;;;;;;;7.97;1.65;;;10.90;99.90;;;;;;5052527;28;20074;-76
2022/03/11 09:33:38;;;;;;;5.40;1.23;;;10.90;99.90;;;;;;5052475;28;20029;-75
2022/03/11 09:36:06;;;;;;;0.00;0.00;;;11.00;99.90;;;;;;5053138;28;20036;-74
2022/03/11 09:38:32;;;;;;;0.13;0.13;;;10.90;99.90;;;;;;5053581;28;20028;-76
2022/03/11 09:41:00;;;;;;;0.00;0.00;;;10.90;99.90;;;;;;5052324;28;20435;-76
2022/03/11 09:43:26;;;;;;;0.05;0.05;;;10.90;99.90;;;;;;5053974;28;20143;-74
2022/03/11 09:45:52;;;;;;;0.10;0.10;;;10.90;99.90;;;;;;5053895;28;20146;-74
2022/03/11 09:48:19;;;;;;;0.85;0.80;;;10.90;99.90;;;;;;5053780;28;20127;-74
2022/03/11 09:50:45;;;;;;;0.38;0.38;;;11.00;99.90;;;;;;5052258;28;20047;-75
2022/03/11 09:53:12;;;;;;;0.00;0.00;;;11.00;99.90;;;;;;5053873;28;20021;-75
2022/03/11 09:55:41;;;;;;;0.00;0.00;;;11.10;99.90;;;;;;5053544;28;20031;-76
2022/03/11 09:58:07;;;;;;;0.20;0.20;;;11.10;99.90;;;;;;5051601;28;20017;-73
2022/03/11 10:00:33;;;;;;;6.75;2.30;;;11.20;99.90;;;;;;5051461;28;20032;-74
2022/03/11 10:02:59;;;;;;;0.00;0.00;;;11.10;99.90;;;;;;5052268;28;20036;-74
2022/03/11 10:05:46;;;;;;;0.00;0.00;;;11.00;99.90;;;;;;5052704;28;20029;-76
2022/03/11 10:08:12;;;;;;;0.00;0.00;;;11.00;99.90;;;;;;5052100;28;20056;-75
2022/03/11 10:10:38;;;;;;;0.00;0.00;;;10.90;99.90;;;;;;5053699;28;20059;-73
2022/03/11 10:13:07;;;;;;;0.08;0.08;;;10.80;99.90;;;;;;5051871;28;20112;-77
2022/03/11 10:15:33;;;;;;;0.00;0.00;;;10.80;99.90;;;;;;5053283;28;20036;-77
2022/03/11 10:18:02;;;;;;;0.00;0.00;;;10.80;99.90;;;;;;5052762;28;20120;-77
2022/03/11 10:20:32;;;;;;;0.00;0.00;;;10.80;99.90;;;;;;5053469;28;20021;-77
2022/03/11 10:22:57;;;;;;;0.00;0.00;;;10.80;99.90;;;;;;5051400;28;20060;-72
2022/03/11 10:25:30;;;;;;;0.00;0.00;;;10.80;99.90;;;;;;5052575;28;20063;-73
2022/03/11 10:28:04;;;;;;;0.00;0.00;;;10.80;99.90;;;;;;5051560;28;20040;-77
2022/03/11 10:30:32;;;;;;;0.08;0.08;;;10.80;99.90;;;;;;5049567;28;20023;-74
2022/03/11 10:32:59;;;;;;;0.00;0.00;;;10.80;99.90;;;;;;5040316;28;20026;-78
2022/03/11 10:35:47;;;;;;;0.25;0.25;;;10.70;99.90;;;;;;5044336;28;20033;-73
2022/03/11 10:38:20;;;;;;;0.20;0.20;;;10.80;99.90;;;;;;5052378;28;20025;-74
2022/03/11 10:40:57;;;;;;;0.00;0.00;;;10.80;99.90;;;;;;5047544;28;20021;-77
2022/03/11 10:43:31;;;;;;;0.45;0.32;;;10.80;99.90;;;;;;5051976;28;20029;-73
2022/03/11 10:46:09;;;;;;;0.00;0.00;;;11.00;99.90;;;;;;5033131;28;20359;-77
2022/03/11 10:48:51;;;;;;;0.00;0.00;;;11.10;99.90;;;;;;5038005;28;20020;-76
2022/03/11 10:51:32;;;;;;;0.00;0.00;;;11.30;99.90;;;;;;5052384;28;20112;-77
2022/03/11 10:54:03;;;;;;;0.00;0.00;;;11.50;99.90;;;;;;5051072;28;20025;-75
2022/03/11 10:56:34;;;;;;;0.00;0.00;;;11.50;99.90;;;;;;5034978;28;20032;-75
2022/03/11 10:59:04;;;;;;;0.47;0.47;;;11.70;99.90;;;;;;5045394;28;20503;-75
2022/03/11 11:01:37;;;;;;;0.00;0.00;;;11.80;99.90;;;;;;5051360;28;20385;-75
2022/03/11 11:04:05;;;;;;;1.00;0.80;;;12.00;99.90;;;;;;5051892;28;20048;-77
2022/03/11 11:06:30;;;;;;;0.00;0.00;;;12.20;99.90;;;;;;5045986;28;20027;-75
2022/03/11 11:08:56;;;;;;;0.00;0.00;;;12.60;99.90;;;;;;5048635;28;20024;-76
2022/03/11 11:11:22;;;;;;;0.10;0.10;;;12.80;99.90;;;;;;5052518;28;20096;-74
2022/03/11 11:13:49;;;;;;;0.10;0.10;;;13.00;99.90;;;;;;5052758;28;20028;-75
2022/03/11 11:16:16;;;;;;;0.40;0.40;;;13.10;99.90;;;;;;5053246;28;20495;-75
2022/03/11 11:18:46;;;;;;;0.22;0.22;;;13.10;99.90;;;;;;5056008;28;20025;-78
2022/03/11 11:21:12;;;;;;;0.00;0.00;;;13.10;99.90;;;;;;5054276;28;20031;-75
2022/03/11 11:23:40;;;;;;;0.00;0.00;;;12.80;99.90;;;;;;5052450;28;20108;-76
2022/03/11 11:26:10;;;;;;;0.00;0.00;;;12.90;99.90;;;;;;5051708;28;20498;-78
2022/03/11 11:28:36;;;;;;;0.30;0.30;;;13.20;99.90;;;;;;5051880;28;20013;-74
2022/03/11 11:31:02;;;;;;;0.00;0.00;;;13.30;99.90;;;;;;5052690;28;20036;-77
2022/03/11 11:33:28;;;;;;;0.00;0.00;;;13.30;99.90;;;;;;5062611;28;20029;-74
2022/03/11 11:35:57;;;;;;;0.00;0.00;;;13.10;99.90;;;;;;5049778;28;20405;-77
2022/03/11 11:38:37;;;;;;;0.00;0.00;;;13.30;99.90;;;;;;5050680;28;20063;-75
2022/03/11 11:41:24;;;;;;;0.00;0.00;;;13.30;99.90;;;;;;5052064;28;20060;-75
2022/03/11 11:44:03;;;;;;;1.60;0.95;;;13.30;99.90;;;;;;5051024;28;20455;-73
2022/03/11 11:46:33;;;;;;;0.32;0.32;;;13.50;99.90;;;;;;5051437;28;20029;-75
2022/03/11 11:49:07;;;;;;;2.08;1.77;;;13.20;99.90;;;;;;5051627;28;20451;-75
2022/03/11 11:51:36;;;;;;;0.63;0.52;;;13.10;99.90;;;;;;5047556;28;20140;-75
2022/03/11 11:54:11;;;;;;;0.00;0.00;;;13.00;99.90;;;;;;5048833;28;20079;-78
2022/03/11 11:56:39;;;;;;;1.13;1.02;;;13.10;99.90;;;;;;5049718;28;20029;-76
2022/03/11 11:59:24;;;;;;;0.20;0.20;;;13.90;99.90;;;;;;5051858;28;20024;-74
2022/03/11 12:01:55;;;;;;;0.03;0.03;;;13.80;99.90;;;;;;5051399;28;20116;-78
2022/03/11 12:04:27;;;;;;;0.00;0.00;;;13.60;99.90;;;;;;5052037;28;20021;-79
2022/03/11 12:07:05;;;;;;;0.10;0.10;;;13.60;99.90;;;;;;5050197;28;20247;-77
2022/03/11 12:10:01;;;;;;;0.15;0.15;;;13.60;99.90;;;;;;5051753;28;20096;-76
2022/03/11 12:12:32;;;;;;;0.00;0.00;;;13.60;99.90;;;;;;5051571;28;20029;-78
2022/03/11 12:15:08;;;;;;;0.13;0.13;;;13.60;99.90;;;;;;5051941;28;20044;-73
2022/03/11 12:18:20;;;;;;;0.00;0.00;;;14.10;99.90;;;;;;5050948;28;20111;-75
2022/03/11 12:20:46;;;;;;;0.10;0.10;;;14.10;99.90;;;;;;5051139;28;20117;-78
2022/03/11 12:23:17;;;;;;;0.00;0.00;;;14.20;99.90;;;;;;5052216;28;20027;-77
2022/03/11 12:25:59;;;;;;;0.00;0.00;;;14.10;99.90;;;;;;5051762;28;20099;-77
2022/03/11 12:28:25;;;;;;;0.00;0.00;;;14.30;99.90;;;;;;5050422;28;20437;-78
2022/03/11 12:30:50;;;;;;;0.32;0.30;;;14.70;99.90;;;;;;5051891;28;20067;-81
2022/03/11 12:33:23;;;;;;;0.00;0.00;;;14.50;99.90;;;;;;5051581;28;20148;-75
2022/03/11 12:35:54;;;;;;;0.00;0.00;;;14.40;99.90;;;;;;5051550;28;20055;-76
2022/03/11 12:38:24;;;;;;;0.00;0.00;;;14.30;99.90;;;;;;5051574;28;20033;-78
2022/03/11 12:40:51;;;;;;;1.92;0.47;;;14.30;99.90;;;;;;5051291;28;20025;-78
2022/03/11 12:43:20;;;;;;;0.10;0.10;;;14.30;99.90;;;;;;5051284;28;20049;-78
2022/03/11 12:45:51;;;;;;;0.80;0.35;;;14.20;99.90;;;;;;5053157;28;20071;-77
2022/03/11 12:48:19;;;;;;;0.10;0.10;;;14.20;99.90;;;;;;5053901;28;20116;-75
2022/03/11 12:50:46;;;;;;;0.08;0.08;;;14.80;99.90;;;;;;5054892;28;20032;-76